KESC/ESC METAR and TAF weather

Enter ICAO airport designator
Station Type Date Time Source
KESC METAR 2018/12/13 07:11 UTC NOAA

KESC 130711Z AUTO 00000KT 1SM BR BKN007 BKN019 OVC026 00/M01 A2995 RMK AO2 CIG 004V010 FZRANO


Station Type Date Time Source
KESC Decoded METAR 2018/12/13 07:11 UTC NOAA

Escanaba, MI, United States (KESC) 45-45N 087-02W 187M
Dec 13, 2018 - 02:11 AM EST / 2018.12.13 0711 UTC
Wind: Calm:0
Visibility: 1 mile(s):0
Sky conditions: overcast
Weather: mist
Temperature: 32 F (0 C)
Dew Point: 30 F (-1 C)
Relative Humidity: 92%
Pressure (altimeter): 29.95 in. Hg (1014 hPa)
ob: KESC 130711Z AUTO 00000KT 1SM BR BKN007 BKN019 OVC026 00/M01 A2995 RMK AO2 CIG 004V010 FZRANO
cycle: 7

Station Type Date Time Source
KESC TAF UTC NOAA

Error!


Example: see airport list